Newport, Tennessee
Current Conditions -  °F | °C
As of 2:35 PM on Thursday 29 Jan 2015 (Local Time) from KMOR Reporting Station
Clear Clear  
Wind Chill: 44°   Ceiling: Unl
Heat Index: 46°   Visibility: 10mi
Dew Point: 34°   Wind: 5mph
Humidity: 62%   Direction: 220°SW
Pressure: 30.02"   Gusts: NA
Location:  35.97°N, 83.18°W
Report Text: KMOR 291935Z AUTO 22004KT 10SM CLR 08/01 A3002 RMK
Loading
Personal Weather Stations






























Interactive Weather Map New forecast layout! Learn more

10-Day Weather Forecast

Advertisements
Track Severe Weather on mobile